KIKW

Jack Barstow Airport

Midland, Michigan, USA
METAR KIKW 200655Z AUTO 08003KT 3SM +DZ OVC004 02/02 A2988 RMK AO2 P0002 T00220022
Observed Flight Rules
Feb-20 @ 06:55 UTC (31 minutes ago) Instrument Flight Rules
Wind Visibility Clouds Conditions
80° at 3 knots 3 miles
  • Overcast at 400' AGL
  • Heavy Drizzle
Temperatures Readings Precipitation
Current 2°C / 36°F
Dewpoint 2°C / 36°F
Humidity 100%
Altimeter 29.88" Hg
Pressure 1012 hPa
Elevation 194
Current Rain 0.02
METAR KIKW 200655Z AUTO 08003KT 3SM +DZ OVC004 02/02 A2988 RMK AO2 P0002 T00220022
Observed Flight Rules
Feb-20 @ 06:55 UTC
(31 minutes ago)
LIFR
Wind Visibility
80° at 3 knots 3 miles
Clouds
  • Overcast at 400' AGL
Conditions
  • Heavy Drizzle
Temperature Dewpoint
2°C / 36°F 2°C / 36°F
Humidity Altimeter Pressure
100% 29.88" Hg 1012 hPa
Current Rain
0.02